Time;durP1;ratioP1;P1;durP2;ratioP2;P2;SDS_P1;SDS_P2;PMS_P1;PMS_P2;Temp;Humidity;BMP_temperature;BMP_pressure;BME280_temperature;BME280_humidity;BME280_pressure;Samples;Min_cycle;Max_cycle;Signal;HPM_P1;HPM_P2
2024/01/05 00:23:41;;;;;;;4.13;1.38;;;;;;;15.59;54.43;99696.56;4152505;28;20067;-68
2024/01/05 00:26:07;;;;;;;7.60;1.45;;;;;;;15.60;53.55;99700.13;5092216;28;20036;-67
2024/01/05 00:28:32;;;;;;;7.97;1.55;;;;;;;15.57;54.38;99690.53;5091985;28;20037;-68
2024/01/05 00:30:59;;;;;;;4.15;1.38;;;;;;;15.58;54.19;99694.88;5091923;28;20082;-68
2024/01/05 00:33:24;;;;;;;3.88;1.58;;;;;;;15.58;54.35;99676.00;5093183;28;20028;-68
2024/01/05 00:35:50;;;;;;;4.75;1.15;;;;;;;15.58;54.49;99678.69;5092973;28;20032;-68
2024/01/05 00:38:15;;;;;;;7.15;1.55;;;;;;;15.59;53.14;99674.97;5093338;28;20207;-68
2024/01/05 00:40:41;;;;;;;8.07;1.02;;;;;;;15.59;54.11;99669.59;5093318;28;20032;-68
2024/01/05 00:43:06;;;;;;;2.97;1.02;;;;;;;15.58;53.54;99667.91;5092952;28;20036;-67
2024/01/05 00:45:31;;;;;;;4.75;0.93;;;;;;;15.58;53.22;99662.50;5092948;28;20109;-68
2024/01/05 00:47:57;;;;;;;3.78;0.70;;;;;;;15.63;54.13;99648.44;5092855;28;20494;-68
2024/01/05 00:50:22;;;;;;;4.45;1.02;;;;;;;15.63;53.71;99643.88;5092892;28;20055;-68
2024/01/05 00:52:47;;;;;;;3.75;1.20;;;;;;;15.62;53.13;99658.41;5092934;28;20034;-68
2024/01/05 00:55:13;;;;;;;4.00;1.20;;;;;;;15.63;52.69;99662.75;5093121;28;20120;-68
2024/01/05 00:57:38;;;;;;;3.92;0.70;;;;;;;15.63;53.66;99637.66;5095228;28;20056;-68
2024/01/05 01:00:04;;;;;;;4.13;1.13;;;;;;;15.65;53.97;99633.72;5095890;28;20052;-68
2024/01/05 01:02:29;;;;;;;5.32;1.17;;;;;;;15.66;53.17;99630.00;5095155;28;20487;-68
2024/01/05 01:04:55;;;;;;;1.67;0.90;;;;;;;15.69;53.89;99616.09;5096317;28;20436;-68
2024/01/05 01:07:20;;;;;;;6.45;1.33;;;;;;;15.76;52.43;99621.59;5081116;28;20029;-67
2024/01/05 01:09:46;;;;;;;4.75;1.20;;;;;;;15.78;53.70;99626.78;5064478;28;20029;-68
2024/01/05 01:12:11;;;;;;;3.83;0.77;;;;;;;15.83;53.19;99624.38;5063658;28;20029;-68
2024/01/05 01:14:36;;;;;;;2.95;0.98;;;;;;;15.86;52.81;99610.44;5066482;28;20036;-68
2024/01/05 01:17:02;;;;;;;8.30;1.55;;;;;;;15.89;52.51;99612.78;5061753;28;20057;-67
2024/01/05 01:19:27;;;;;;;1.10;0.40;;;;;;;15.94;52.24;99608.47;5065338;28;20395;-68
2024/01/05 01:21:52;;;;;;;2.20;1.13;;;;;;;16.00;53.11;99612.25;5066433;28;20120;-68
2024/01/05 01:24:18;;;;;;;7.03;1.02;;;;;;;16.02;52.20;99602.94;5070748;28;20049;-67
2024/01/05 01:26:43;;;;;;;4.28;1.60;;;;;;;16.03;52.54;99603.75;5068920;28;20025;-68
2024/01/05 01:29:09;;;;;;;9.13;1.10;;;;;;;16.06;52.68;99595.28;5064144;28;20539;-68
2024/01/05 01:31:34;;;;;;;2.55;1.00;;;;;;;16.01;52.24;99586.91;5064919;28;20027;-68
2024/01/05 01:33:59;;;;;;;2.33;1.30;;;;;;;16.07;52.72;99599.66;5064317;28;20500;-68
2024/01/05 01:36:25;;;;;;;9.20;0.88;;;;;;;16.08;51.67;99599.44;5065003;28;20056;-68
2024/01/05 01:38:50;;;;;;;4.25;0.85;;;;;;;16.08;52.48;99590.53;5065629;28;20087;-68
2024/01/05 01:41:16;;;;;;;3.35;1.45;;;;;;;16.12;52.44;99594.50;5062578;28;20119;-68
2024/01/05 01:43:45;;;;;;;6.05;1.60;;;;;;;16.11;52.86;99590.94;5064092;28;20396;-67
2024/01/05 01:46:11;;;;;;;2.38;0.90;;;;;;;16.12;52.41;99594.50;5065406;28;20033;-68
2024/01/05 01:48:37;;;;;;;2.90;1.00;;;;;;;16.14;52.37;99587.03;5063609;28;20115;-67
2024/01/05 01:51:03;;;;;;;0.93;0.32;;;;;;;16.14;51.58;99587.88;5065088;28;20048;-68
2024/01/05 01:53:28;;;;;;;3.83;0.93;;;;;;;16.13;51.03;99579.97;5064908;28;20036;-68
2024/01/05 01:55:54;;;;;;;5.82;1.33;;;;;;;16.13;51.81;99574.56;5063295;28;20552;-68
2024/01/05 01:58:20;;;;;;;1.45;0.55;;;;;;;16.14;51.42;99570.81;5064020;28;20059;-67
2024/01/05 02:00:46;;;;;;;7.40;0.60;;;;;;;16.11;52.35;99576.59;5063121;28;20057;-67
2024/01/05 02:03:13;;;;;;;6.22;0.70;;;;;;;16.13;52.65;99570.00;5061004;28;20036;-67
2024/01/05 02:05:40;;;;;;;7.28;1.15;;;;;;;16.15;51.56;99564.38;5054897;28;20039;-68
2024/01/05 02:08:07;;;;;;;3.05;0.93;;;;;;;16.16;51.56;99571.47;5053936;28;20033;-68
2024/01/05 02:10:32;;;;;;;5.68;0.93;;;;;;;16.14;51.99;99560.00;5053350;28;20056;-67
2024/01/05 02:12:57;;;;;;;6.20;0.90;;;;;;;16.07;51.49;99549.16;5054514;28;20404;-68
2024/01/05 02:15:23;;;;;;;3.38;1.05;;;;;;;16.13;51.97;99558.34;5054822;28;20025;-68
2024/01/05 02:17:48;;;;;;;4.38;0.90;;;;;;;16.16;50.99;99552.56;5054760;28;20040;-67
2024/01/05 02:20:14;;;;;;;4.20;0.80;;;;;;;16.14;51.97;99549.19;5054864;28;20033;-68
2024/01/05 02:22:44;;;;;;;2.95;0.77;;;;;;;16.15;52.24;99546.31;5053372;28;20040;-68
2024/01/05 02:25:09;;;;;;;1.73;0.68;;;;;;;16.16;51.19;99547.16;5054652;28;20080;-68
2024/01/05 02:27:34;;;;;;;2.10;0.70;;;;;;;16.14;50.82;99554.59;5054321;28;20072;-68
2024/01/05 02:30:00;;;;;;;6.20;1.48;;;;;;;16.11;51.09;99541.47;5054111;28;20041;-68
2024/01/05 02:32:26;;;;;;;3.80;0.63;;;;;;;16.10;50.47;99535.28;5054311;28;20480;-68
2024/01/05 02:34:51;;;;;;;2.38;0.70;;;;;;;16.10;51.22;99542.53;5054460;28;20036;-68
2024/01/05 02:37:16;;;;;;;1.95;0.43;;;;;;;16.06;51.31;99530.44;5053974;28;20021;-68
2024/01/05 02:39:42;;;;;;;2.28;0.82;;;;;;;16.08;50.81;99540.00;5054301;28;20047;-68
2024/01/05 02:42:07;;;;;;;4.03;0.95;;;;;;;16.03;51.75;99528.13;5053945;28;20472;-68
2024/01/05 02:44:32;;;;;;;5.65;0.88;;;;;;;16.05;51.46;99534.19;5054132;28;20048;-68
2024/01/05 02:46:58;;;;;;;3.40;0.50;;;;;;;16.02;51.11;99534.56;5052750;28;20377;-68
2024/01/05 02:49:24;;;;;;;9.13;1.25;;;;;;;16.00;51.22;99531.22;5054030;28;20021;-68
2024/01/05 02:51:49;;;;;;;3.03;0.60;;;;;;;15.98;50.41;99528.72;5053894;28;20025;-67
2024/01/05 02:54:14;;;;;;;4.93;0.43;;;;;;;15.98;50.47;99533.28;5052356;28;20392;-67
2024/01/05 02:56:40;;;;;;;5.28;1.20;;;;;;;15.95;50.92;99533.66;5052595;28;20025;-68
2024/01/05 02:59:05;;;;;;;2.00;0.70;;;;;;;15.95;51.86;99530.97;5036022;28;20027;-67
2024/01/05 03:01:31;;;;;;;3.92;1.45;;;;;;;15.97;51.72;99531.63;5053776;28;20017;-67
2024/01/05 03:03:57;;;;;;;7.43;0.82;;;;;;;15.98;51.05;99527.88;5053467;28;20025;-68
2024/01/05 03:06:23;;;;;;;1.85;1.00;;;;;;;15.99;50.00;99529.56;5053901;28;20013;-68
2024/01/05 03:08:49;;;;;;;5.00;0.70;;;;;;;15.96;50.75;99509.19;5052380;28;20059;-67
2024/01/05 03:11:14;;;;;;;8.18;0.70;;;;;;;15.97;50.71;99501.94;5052478;28;20419;-68
2024/01/05 03:13:40;;;;;;;3.38;0.73;;;;;;;15.95;51.17;99506.66;5053445;28;20023;-68
2024/01/05 03:16:05;;;;;;;4.75;0.70;;;;;;;15.93;50.88;99498.78;5052339;28;20024;-68
2024/01/05 03:18:31;;;;;;;5.70;1.02;;;;;;;15.92;51.73;99490.84;5053825;28;20025;-67
2024/01/05 03:20:56;;;;;;;4.35;0.75;;;;;;;15.93;51.18;99490.66;5052207;28;20060;-68
2024/01/05 03:23:21;;;;;;;10.20;0.93;;;;;;;15.90;50.65;99482.97;5052557;28;20025;-68
2024/01/05 03:25:50;;;;;;;2.03;1.00;;;;;;;15.87;50.57;99472.53;5054461;28;20482;-68
2024/01/05 03:28:15;;;;;;;2.42;1.00;;;;;;;15.86;51.07;99470.03;5055833;28;20103;-68
2024/01/05 03:30:41;;;;;;;2.30;0.50;;;;;;;15.87;51.13;99477.09;5053676;28;20033;-67
2024/01/05 03:33:07;;;;;;;2.70;0.70;;;;;;;15.87;50.90;99469.84;5053685;28;20511;-67
2024/01/05 03:35:32;;;;;;;7.40;0.75;;;;;;;15.85;51.01;99469.22;5055794;28;20435;-68
2024/01/05 03:37:58;;;;;;;5.20;1.85;;;;;;;15.84;50.22;99455.91;5056275;28;20554;-67
2024/01/05 03:40:23;;;;;;;4.28;0.80;;;;;;;15.77;50.52;99450.47;5055609;28;20047;-68
2024/01/05 03:42:48;;;;;;;5.70;1.10;;;;;;;15.87;51.43;99452.81;5052878;28;20017;-68
2024/01/05 03:45:14;;;;;;;2.53;0.50;;;;;;;15.89;50.45;99464.22;5051713;28;20037;-67
2024/01/05 03:47:39;;;;;;;7.40;1.05;;;;;;;15.87;50.89;99456.34;5053092;28;20047;-68
2024/01/05 03:50:05;;;;;;;6.72;1.25;;;;;;;15.85;50.99;99452.19;5053003;28;20037;-68
2024/01/05 03:52:31;;;;;;;7.05;1.38;;;;;;;15.87;50.41;99442.00;5035662;28;20036;-68
2024/01/05 03:54:56;;;;;;;6.93;0.75;;;;;;;15.86;50.29;99441.16;5053235;28;20025;-68
2024/01/05 03:57:22;;;;;;;6.03;1.10;;;;;;;15.87;49.69;99444.69;5051940;28;20045;-67
2024/01/05 03:59:47;;;;;;;6.18;0.80;;;;;;;15.85;50.14;99441.38;5052889;28;20029;-68
2024/01/05 04:02:12;;;;;;;3.67;0.75;;;;;;;15.84;50.55;99429.72;5051737;28;20037;-68
2024/01/05 04:04:39;;;;;;;3.45;0.88;;;;;;;15.84;50.45;99434.28;5052647;28;20060;-67
2024/01/05 04:07:05;;;;;;;4.38;1.13;;;;;;;15.83;49.64;99427.25;5051484;28;20083;-67
2024/01/05 04:09:31;;;;;;;2.97;0.90;;;;;;;15.84;50.75;99415.38;5052769;28;20112;-68
2024/01/05 04:11:57;;;;;;;10.05;1.20;;;;;;;15.83;51.17;99416.44;5053000;28;20037;-67
2024/01/05 04:14:22;;;;;;;2.45;0.60;;;;;;;15.83;51.22;99414.56;5052613;28;20531;-68
2024/01/05 04:16:47;;;;;;;2.92;0.50;;;;;;;15.85;50.61;99408.97;5052656;28;20037;-67
2024/01/05 04:19:13;;;;;;;3.92;0.65;;;;;;;15.84;50.89;99391.09;5052581;28;20112;-68
2024/01/05 04:21:38;;;;;;;4.03;0.93;;;;;;;15.86;50.44;99394.41;5052778;28;20040;-67
2024/01/05 04:24:03;;;;;;;2.05;0.52;;;;;;;15.87;50.75;99398.78;5052536;28;20043;-68
2024/01/05 04:26:29;;;;;;;2.58;0.70;;;;;;;15.89;49.51;99399.41;5052767;28;20492;-68
2024/01/05 04:28:54;;;;;;;1.95;0.52;;;;;;;15.90;50.27;99395.69;5033496;28;20035;-68
2024/01/05 04:31:20;;;;;;;3.22;0.73;;;;;;;15.89;50.29;99383.22;5051812;28;20029;-68
2024/01/05 04:33:45;;;;;;;5.15;0.85;;;;;;;15.87;50.27;99391.53;5056348;28;20108;-68
2024/01/05 04:36:12;;;;;;;1.08;0.68;;;;;;;15.88;50.49;99397.78;5056539;28;20078;-68
2024/01/05 04:38:37;;;;;;;4.15;0.60;;;;;;;15.87;49.15;99386.13;5056530;28;20033;-68
2024/01/05 04:41:03;;;;;;;3.78;0.70;;;;;;;15.86;49.72;99376.34;5056332;28;20495;-67
2024/01/05 04:43:28;;;;;;;5.88;0.75;;;;;;;15.84;50.87;99380.28;5056569;28;20029;-67
2024/01/05 04:45:53;;;;;;;3.28;0.82;;;;;;;15.83;49.47;99386.75;5056109;28;20434;-67
2024/01/05 04:48:19;;;;;;;2.00;0.70;;;;;;;15.83;49.71;99378.63;5056357;28;20041;-68
2024/01/05 04:50:45;;;;;;;4.13;1.25;;;;;;;15.80;49.16;99368.22;5054724;28;20036;-67
2024/01/05 04:53:10;;;;;;;5.35;0.73;;;;;;;15.83;49.61;99370.53;5056022;28;20025;-68
2024/01/05 04:55:35;;;;;;;1.05;0.40;;;;;;;15.85;49.28;99365.75;5055636;28;20079;-67
2024/01/05 04:58:01;;;;;;;0.57;0.57;;;;;;;15.86;48.86;99367.41;5054495;28;20594;-67
2024/01/05 05:00:26;;;;;;;2.22;0.90;;;;;;;15.87;49.37;99374.50;5055966;28;20066;-67
2024/01/05 05:02:51;;;;;;;2.90;0.30;;;;;;;15.86;50.51;99362.84;5056076;28;20369;-67
2024/01/05 05:05:17;;;;;;;5.32;0.80;;;;;;;15.87;49.45;99363.69;5055659;28;20040;-67
2024/01/05 05:07:43;;;;;;;3.08;0.43;;;;;;;15.87;50.24;99358.28;5055686;28;20049;-67
2024/01/05 05:10:08;;;;;;;1.23;0.68;;;;;;;15.88;49.48;99355.41;5055864;28;20029;-68
2024/01/05 05:12:34;;;;;;;1.42;1.13;;;;;;;15.90;49.19;99352.50;5055763;28;20496;-67
2024/01/05 05:14:59;;;;;;;3.35;0.57;;;;;;;15.92;48.91;99361.22;5055530;28;20480;-68
2024/01/05 05:17:24;;;;;;;1.17;0.55;;;;;;;15.92;48.68;99345.84;5055592;28;20493;-67
2024/01/05 05:19:54;;;;;;;3.88;1.05;;;;;;;15.94;48.62;99342.97;5055591;28;20509;-67
2024/01/05 05:22:20;;;;;;;3.47;0.35;;;;;;;15.95;49.86;99350.03;5055607;28;20495;-67
2024/01/05 05:24:45;;;;;;;5.07;0.93;;;;;;;15.97;50.29;99347.97;5056257;28;20040;-67
2024/01/05 05:27:11;;;;;;;4.22;0.85;;;;;;;15.99;49.27;99351.31;5056206;28;20053;-67
2024/01/05 05:29:36;;;;;;;4.10;0.50;;;;;;;16.01;48.50;99341.13;5055414;28;20033;-67
2024/01/05 05:32:01;;;;;;;4.03;1.15;;;;;;;16.01;50.08;99343.81;5055100;28;20104;-67
2024/01/05 05:34:27;;;;;;;0.80;0.50;;;;;;;16.00;49.52;99342.16;5055336;28;20040;-67
2024/01/05 05:36:52;;;;;;;9.75;1.60;;;;;;;15.98;49.80;99347.75;5055577;28;20060;-67
2024/01/05 05:39:18;;;;;;;0.60;0.30;;;;;;;15.96;49.37;99341.75;5055116;28;20025;-68
2024/01/05 05:41:43;;;;;;;3.45;0.50;;;;;;;15.99;49.64;99351.31;5054917;28;20040;-67
2024/01/05 05:44:09;;;;;;;1.08;0.40;;;;;;;15.99;48.08;99346.75;5054802;28;20087;-67
2024/01/05 05:46:34;;;;;;;2.92;0.95;;;;;;;16.00;49.12;99345.69;5054832;28;20033;-67
2024/01/05 05:48:59;;;;;;;3.70;0.60;;;;;;;16.01;48.30;99357.31;5053692;28;20025;-68
2024/01/05 05:51:25;;;;;;;2.13;0.60;;;;;;;16.01;48.67;99354.63;5054901;28;20040;-68
2024/01/05 05:53:50;;;;;;;4.10;0.90;;;;;;;16.03;48.44;99350.69;5053625;28;20053;-67
2024/01/05 05:56:15;;;;;;;5.18;1.00;;;;;;;16.03;48.67;99355.25;5053447;28;20562;-67
2024/01/05 05:58:41;;;;;;;3.05;0.40;;;;;;;16.04;49.04;99354.22;5054612;28;20029;-67
2024/01/05 06:01:06;;;;;;;8.25;1.02;;;;;;;16.05;48.83;99361.31;5054691;28;20033;-67
2024/01/05 06:03:31;;;;;;;2.13;0.47;;;;;;;16.04;48.48;99348.81;5054590;28;20090;-67
2024/01/05 06:05:57;;;;;;;6.82;0.63;;;;;;;16.05;48.58;99345.09;5054588;28;20128;-67
2024/01/05 06:08:23;;;;;;;3.42;0.55;;;;;;;16.04;48.78;99354.22;5054811;28;20037;-68
2024/01/05 06:10:48;;;;;;;1.15;0.50;;;;;;;16.04;48.64;99355.06;5054509;28;20033;-67
2024/01/05 06:13:13;;;;;;;3.78;0.32;;;;;;;16.04;49.62;99354.22;5054473;28;20037;-67
2024/01/05 06:15:39;;;;;;;2.38;0.55;;;;;;;16.07;48.61;99375.44;5054286;28;20496;-67
2024/01/05 06:18:04;;;;;;;1.95;1.23;;;;;;;16.04;48.21;99365.03;5053702;28;20078;-67
2024/01/05 06:20:29;;;;;;;2.67;0.45;;;;;;;16.05;48.33;99374.81;5054467;28;20033;-68
2024/01/05 06:22:55;;;;;;;2.80;0.50;;;;;;;16.06;48.68;99373.75;5054078;28;20492;-68
2024/01/05 06:25:20;;;;;;;1.45;0.40;;;;;;;16.05;49.00;99374.81;5053984;28;20400;-67
2024/01/05 06:27:46;;;;;;;5.03;0.20;;;;;;;16.05;48.56;99378.31;5054144;28;20079;-68
2024/01/05 06:30:11;;;;;;;2.28;0.40;;;;;;;16.05;49.06;99393.72;5052745;28;20048;-68
2024/01/05 06:32:38;;;;;;;1.60;0.63;;;;;;;16.04;48.05;99381.25;5052910;28;20036;-67
2024/01/05 06:35:05;;;;;;;2.20;0.45;;;;;;;16.04;48.59;99398.28;5053941;28;20025;-68
2024/01/05 06:37:30;;;;;;;3.35;0.30;;;;;;;16.03;47.99;99396.59;5053783;28;20037;-67
2024/01/05 06:39:56;;;;;;;0.80;0.45;;;;;;;16.03;47.75;99402.00;5052920;28;20039;-67
2024/01/05 06:42:22;;;;;;;1.67;0.93;;;;;;;16.00;48.39;99386.19;5052903;28;20040;-68
2024/01/05 06:44:48;;;;;;;2.53;0.40;;;;;;;16.01;48.06;99392.44;5053842;28;20041;-67
2024/01/05 06:47:14;;;;;;;2.65;0.38;;;;;;;15.98;48.06;99392.84;5053755;28;20029;-66
2024/01/05 06:49:39;;;;;;;4.30;0.57;;;;;;;15.92;48.23;99382.81;5054044;28;20083;-68
2024/01/05 06:52:05;;;;;;;3.97;0.20;;;;;;;15.96;48.45;99394.91;5053770;28;20033;-67
2024/01/05 06:54:30;;;;;;;2.30;0.20;;;;;;;15.93;47.46;99389.91;5053277;28;20116;-67
2024/01/05 06:56:56;;;;;;;2.78;0.30;;;;;;;15.88;47.56;99393.22;5053600;28;20404;-67
2024/01/05 06:59:24;;;;;;;0.63;0.17;;;;;;;15.85;47.44;99395.47;5053823;28;20565;-67
2024/01/05 07:01:49;;;;;;;0.17;0.17;;;;;;;15.82;48.04;99394.00;5053640;28;20052;-67
2024/01/05 07:04:15;;;;;;;0.47;0.00;;;;;;;15.77;47.04;99391.06;5052668;28;20492;-67
2024/01/05 07:06:41;;;;;;;1.17;0.20;;;;;;;15.73;47.06;99385.22;5053258;28;20036;-67
2024/01/05 07:09:07;;;;;;;0.17;0.10;;;;;;;15.74;47.04;99392.25;5053699;28;20467;-67
2024/01/05 07:11:32;;;;;;;0.15;0.10;;;;;;;15.72;46.48;99394.34;5053320;28;20029;-67
2024/01/05 07:13:58;;;;;;;0.95;0.10;;;;;;;15.72;47.65;99383.53;5053713;28;20112;-67
2024/01/05 07:16:23;;;;;;;0.20;0.20;;;;;;;15.69;47.05;99394.72;5053685;28;20116;-68
2024/01/05 07:18:49;;;;;;;1.08;0.13;;;;;;;15.66;47.76;99387.03;5068061;28;20029;-67
2024/01/05 07:21:15;;;;;;;0.93;0.17;;;;;;;15.65;47.30;99393.47;5060616;28;20068;-67
2024/01/05 07:23:40;;;;;;;0.45;0.10;;;;;;;15.64;46.69;99390.94;5053390;28;20124;-67
2024/01/05 07:26:06;;;;;;;0.52;0.00;;;;;;;15.60;45.96;99390.53;5053375;28;20048;-67
2024/01/05 07:28:31;;;;;;;0.30;0.10;;;;;;;15.57;46.75;99385.53;5053423;28;20029;-67
2024/01/05 07:30:57;;;;;;;0.43;0.35;;;;;;;15.55;45.91;99379.47;5053118;28;20045;-67
2024/01/05 07:33:22;;;;;;;0.30;0.10;;;;;;;15.52;46.83;99393.34;5069725;28;20029;-67
2024/01/05 07:35:48;;;;;;;1.10;0.10;;;;;;;15.51;46.46;99397.09;5073121;28;20503;-67
2024/01/05 07:38:14;;;;;;;0.93;0.10;;;;;;;15.50;45.80;99399.97;5072575;28;20118;-67
2024/01/05 07:40:39;;;;;;;0.52;0.30;;;;;;;15.49;46.18;99409.97;5071631;28;20077;-67
2024/01/05 07:43:05;;;;;;;1.27;0.08;;;;;;;15.45;45.64;99392.44;5072948;28;20036;-67
2024/01/05 07:45:30;;;;;;;1.00;0.08;;;;;;;15.45;47.26;99414.03;5091619;28;20081;-67
2024/01/05 07:47:58;;;;;;;0.68;0.10;;;;;;;15.41;47.21;99415.44;5091958;28;20495;-67
2024/01/05 07:50:23;;;;;;;1.50;0.30;;;;;;;15.40;45.65;99403.00;5092118;28;20032;-67
2024/01/05 07:52:49;;;;;;;0.25;0.25;;;;;;;15.40;46.47;99426.44;5092973;28;20036;-67
2024/01/05 07:55:15;;;;;;;1.15;0.10;;;;;;;15.38;46.28;99412.31;5093198;28;20032;-67
2024/01/05 07:57:40;;;;;;;0.00;0.00;;;;;;;15.37;46.60;99421.44;5092871;28;20127;-66
2024/01/05 08:00:06;;;;;;;0.38;0.17;;;;;;;15.37;46.82;99414.19;5093083;28;20042;-67
2024/01/05 08:02:32;;;;;;;1.13;0.15;;;;;;;15.37;46.64;99422.28;5093035;28;20107;-67
2024/01/05 08:04:57;;;;;;;0.00;0.00;;;;;;;15.38;45.77;99413.13;5094593;28;20038;-67
2024/01/05 08:07:23;;;;;;;1.95;0.10;;;;;;;15.42;46.01;99419.81;5081036;28;20059;-67
2024/01/05 08:09:52;;;;;;;0.10;0.00;;;;;;;15.39;46.21;99414.81;5079624;28;20029;-67
2024/01/05 08:12:19;;;;;;;1.73;0.20;;;;;;;15.47;46.22;99411.16;5078680;28;20032;-67
2024/01/05 08:14:45;;;;;;;0.63;0.20;;;;;;;15.47;46.25;99406.59;5076646;28;20028;-67
2024/01/05 08:17:10;;;;;;;1.92;0.10;;;;;;;15.44;46.07;99415.06;5075345;28;20043;-67
2024/01/05 08:19:35;;;;;;;0.28;0.10;;;;;;;15.43;46.80;99416.09;5076782;28;20059;-67
2024/01/05 08:22:01;;;;;;;0.32;0.10;;;;;;;15.44;46.28;99430.41;5076509;28;20515;-67
2024/01/05 08:24:27;;;;;;;0.63;0.20;;;;;;;15.44;45.74;99408.81;5076412;28;20498;-67
2024/01/05 08:26:53;;;;;;;0.40;0.10;;;;;;;15.45;45.37;99421.28;5075118;28;20037;-67
2024/01/05 08:29:21;;;;;;;2.05;0.35;;;;;;;15.47;45.44;99413.88;5076220;28;20028;-67
2024/01/05 08:31:47;;;;;;;0.10;0.10;;;;;;;15.50;45.81;99435.91;5076516;28;20033;-67
2024/01/05 08:34:12;;;;;;;0.22;0.20;;;;;;;15.56;45.08;99432.44;5076315;28;20452;-67
2024/01/05 08:36:37;;;;;;;0.05;0.00;;;;;;;15.65;46.06;99436.66;5076095;28;20033;-67
2024/01/05 08:39:05;;;;;;;0.20;0.20;;;;;;;15.71;46.34;99430.50;5076411;28;20040;-67
2024/01/05 08:41:30;;;;;;;0.30;0.20;;;;;;;15.77;45.39;99434.25;5075977;28;20500;-67
2024/01/05 08:43:56;;;;;;;1.45;0.30;;;;;;;15.85;46.09;99446.78;5075071;28;20047;-67
2024/01/05 08:46:21;;;;;;;0.45;0.20;;;;;;;15.91;44.87;99438.72;5076118;28;20556;-67
2024/01/05 08:48:46;;;;;;;0.85;0.13;;;;;;;15.89;45.06;99439.94;5076002;28;20574;-66
2024/01/05 08:51:12;;;;;;;0.52;0.20;;;;;;;15.88;44.83;99435.59;5075015;28;20116;-67
2024/01/05 08:53:37;;;;;;;2.42;0.10;;;;;;;15.85;44.70;99446.78;5075820;28;20063;-67
2024/01/05 08:56:03;;;;;;;1.95;0.90;;;;;;;15.83;45.87;99441.56;5075915;28;20412;-67
2024/01/05 08:58:28;;;;;;;1.35;0.30;;;;;;;15.83;44.97;99443.44;5075824;28;20116;-67
2024/01/05 09:00:54;;;;;;;0.70;0.10;;;;;;;15.93;45.68;99449.31;5075793;28;20033;-66
2024/01/05 09:03:19;;;;;;;0.73;0.20;;;;;;;16.01;45.71;99444.59;5075756;28;20500;-65
2024/01/05 09:05:46;;;;;;;0.45;0.30;;;;;;;16.07;44.95;99443.81;5075585;28;20037;-66
2024/01/05 09:08:11;;;;;;;1.17;0.10;;;;;;;16.13;44.84;99440.31;5075605;28;20036;-67
2024/01/05 09:10:38;;;;;;;2.72;0.45;;;;;;;16.12;44.65;99437.81;5075787;28;20128;-67
2024/01/05 09:13:03;;;;;;;1.55;0.10;;;;;;;16.05;45.18;99447.75;5075654;28;20032;-67
2024/01/05 09:15:30;;;;;;;1.17;0.28;;;;;;;16.00;44.60;99436.69;5074019;28;20086;-67
2024/01/05 09:17:55;;;;;;;0.10;0.10;;;;;;;15.99;44.79;99456.63;5065579;28;20057;-67
2024/01/05 09:20:21;;;;;;;0.40;0.10;;;;;;;15.93;45.44;99460.97;5055295;28;20064;-67
2024/01/05 09:22:46;;;;;;;3.03;0.20;;;;;;;15.88;46.04;99457.19;5055457;28;20124;-67
2024/01/05 09:25:13;;;;;;;0.85;0.20;;;;;;;15.87;45.98;99458.22;5055404;28;20041;-66
2024/01/05 09:27:38;;;;;;;3.75;0.40;;;;;;;15.85;45.22;99453.00;5055609;28;20036;-67
2024/01/05 09:30:04;;;;;;;0.30;0.13;;;;;;;15.85;45.13;99469.22;5054202;28;20025;-67
2024/01/05 09:32:30;;;;;;;3.10;0.63;;;;;;;15.86;45.01;99480.81;5055479;28;20144;-67
2024/01/05 09:34:55;;;;;;;2.88;0.38;;;;;;;15.81;44.58;99461.69;5055251;28;20052;-67
2024/01/05 09:37:21;;;;;;;0.80;0.15;;;;;;;15.81;45.46;99467.09;5055135;28;20159;-67
2024/01/05 09:39:47;;;;;;;0.75;0.30;;;;;;;15.88;45.59;99462.59;5055316;28;20032;-66
2024/01/05 09:42:12;;;;;;;0.38;0.22;;;;;;;15.89;45.18;99465.06;5055445;28;20541;-67
2024/01/05 09:44:38;;;;;;;2.03;0.45;;;;;;;15.93;44.05;99477.16;5053823;28;20078;-66
2024/01/05 09:47:04;;;;;;;4.00;0.32;;;;;;;16.01;45.21;99466.22;5055340;28;20029;-67
2024/01/05 09:49:35;;;;;;;1.65;0.60;;;;;;;16.18;45.20;99481.09;5054944;28;20033;-67
2024/01/05 09:52:01;;;;;;;1.75;1.15;;;;;;;16.26;44.24;99483.63;5055016;28;20377;-67
2024/01/05 09:54:27;;;;;;;1.38;0.30;;;;;;;16.34;44.75;99479.91;5055329;28;20563;-67
2024/01/05 09:56:54;;;;;;;0.95;0.25;;;;;;;16.30;44.98;99475.97;5054866;28;20119;-67
2024/01/05 09:59:20;;;;;;;1.95;0.43;;;;;;;16.27;45.32;99481.75;5053860;28;20291;-66
2024/01/05 10:01:49;;;;;;;2.25;0.50;;;;;;;16.23;44.33;99481.31;5053654;28;20104;-67
2024/01/05 10:04:15;;;;;;;0.77;0.25;;;;;;;16.22;45.11;99497.72;5053720;28;20485;-67
2024/01/05 10:06:40;;;;;;;1.70;0.30;;;;;;;16.20;44.46;99483.56;5055067;28;20112;-67
2024/01/05 10:09:06;;;;;;;0.47;0.30;;;;;;;16.12;45.23;99489.13;5037240;28;20033;-66
2024/01/05 10:11:33;;;;;;;1.77;0.40;;;;;;;16.09;45.10;99508.44;5053614;28;20037;-67
2024/01/05 10:14:02;;;;;;;2.65;0.30;;;;;;;16.01;44.81;99489.69;5054783;28;20082;-67
2024/01/05 10:16:36;;;;;;;1.75;0.40;;;;;;;15.96;45.43;99503.78;5053419;28;20037;-67
2024/01/05 10:19:28;;;;;;;3.42;0.40;;;;;;;15.88;45.52;99511.19;5053114;28;20025;-67
2024/01/05 10:21:54;;;;;;;5.82;0.55;;;;;;;15.81;45.14;99521.09;5051572;28;20060;-67
2024/01/05 10:24:29;;;;;;;1.25;0.30;;;;;;;15.78;45.12;99497.19;5054431;28;20135;-67
2024/01/05 10:27:01;;;;;;;1.88;0.50;;;;;;;15.80;44.83;99505.94;5053600;28;20033;-66
2024/01/05 10:29:27;;;;;;;3.45;0.40;;;;;;;15.76;44.84;99493.84;5052728;28;20041;-67
2024/01/05 10:31:52;;;;;;;3.72;0.35;;;;;;;15.72;45.33;99496.09;5061073;28;20484;-67
2024/01/05 10:34:18;;;;;;;0.45;0.20;;;;;;;15.64;45.26;99491.66;5074348;28;20042;-66
2024/01/05 10:36:43;;;;;;;0.40;0.20;;;;;;;15.66;45.40;99507.69;5073855;28;20037;-67
2024/01/05 10:39:09;;;;;;;1.25;0.50;;;;;;;15.63;44.96;99508.88;5074115;28;20047;-67
2024/01/05 10:41:34;;;;;;;2.60;0.40;;;;;;;15.62;45.80;99501.84;5072981;28;20135;-67
2024/01/05 10:44:02;;;;;;;0.85;0.30;;;;;;;15.64;44.57;99494.38;5072640;28;20078;-67
2024/01/05 10:46:29;;;;;;;1.35;0.47;;;;;;;15.63;45.66;99506.19;5073826;28;20051;-67
2024/01/05 10:48:56;;;;;;;4.28;0.40;;;;;;;15.62;45.44;99509.09;5072516;28;20521;-67
2024/01/05 10:51:24;;;;;;;2.05;0.30;;;;;;;15.56;44.84;99499.06;5073762;28;20101;-66
2024/01/05 10:53:50;;;;;;;3.13;0.30;;;;;;;15.57;45.57;99506.16;5073869;28;20079;-66
2024/01/05 10:56:18;;;;;;;4.35;0.73;;;;;;;15.54;46.19;99510.06;5072306;28;20095;-67
2024/01/05 10:58:44;;;;;;;0.98;0.25;;;;;;;15.57;45.91;99509.69;5073791;28;20043;-67
2024/01/05 11:01:10;;;;;;;0.35;0.20;;;;;;;15.57;45.16;99501.59;5073622;28;20415;-67
2024/01/05 11:03:39;;;;;;;4.55;0.90;;;;;;;15.57;45.19;99515.09;5073376;28;20033;-67
2024/01/05 11:06:08;;;;;;;1.48;0.30;;;;;;;15.57;44.75;99520.47;5072071;28;20111;-67
2024/01/05 11:08:53;;;;;;;1.27;0.40;;;;;;;15.59;45.99;99507.63;5071151;28;20029;-67
2024/01/05 11:11:37;;;;;;;2.15;0.55;;;;;;;15.60;45.57;99514.69;5072562;28;20048;-66
2024/01/05 11:14:40;;;;;;;2.65;0.50;;;;;;;15.60;44.81;99503.91;5073706;28;20051;-66
2024/01/05 11:17:28;;;;;;;3.17;0.65;;;;;;;15.61;44.94;99512.81;5072470;28;20540;-67
2024/01/05 11:20:05;;;;;;;1.52;0.50;;;;;;;15.62;45.86;99509.94;5072515;28;20040;-66
2024/01/05 11:22:34;;;;;;;4.88;0.55;;;;;;;15.64;44.67;99515.97;5071970;28;20508;-66
2024/01/05 11:25:00;;;;;;;3.53;0.35;;;;;;;15.66;44.89;99510.41;5071898;28;20567;-67
2024/01/05 11:27:30;;;;;;;1.35;0.65;;;;;;;15.66;44.60;99505.81;5072399;28;20114;-67
2024/01/05 11:29:57;;;;;;;2.65;0.35;;;;;;;15.65;45.10;99517.66;5073420;28;20558;-67
2024/01/05 11:32:32;;;;;;;3.80;0.88;;;;;;;15.64;46.23;99526.75;5072078;28;20407;-67
2024/01/05 11:34:57;;;;;;;0.68;0.50;;;;;;;15.58;45.30;99514.03;5073106;28;20043;-67
2024/01/05 11:37:30;;;;;;;1.20;0.50;;;;;;;15.61;45.26;99516.34;5055542;28;20032;-67
2024/01/05 11:39:58;;;;;;;4.22;0.40;;;;;;;15.62;46.24;99518.03;5073139;28;20123;-67
2024/01/05 11:42:23;;;;;;;2.25;0.50;;;;;;;15.57;45.30;99508.84;5073199;28;20032;-67
2024/01/05 11:44:49;;;;;;;1.55;1.42;;;;;;;15.53;44.84;99521.88;5073241;28;20078;-67
2024/01/05 11:47:40;;;;;;;2.67;0.57;;;;;;;15.53;44.85;99518.34;5073179;28;20484;-67
2024/01/05 11:50:30;;;;;;;1.65;0.60;;;;;;;15.55;45.52;99519.81;5073233;28;20032;-67
2024/01/05 11:53:15;;;;;;;2.80;0.63;;;;;;;15.60;45.88;99508.47;5073318;28;20075;-67